Las Vegas, Nevada
Traffic Map
Current Weather Conditions
Las Vegas, Nevada
Scattered Clouds
Scattered Clouds
59°
Feels Like: 59°
Wind Chill: 59° Ceiling: Unl
Heat Index: 59° Visibility: 10mi
Dew Point: 36° Wind: 15mph
Humidity: 42% Direction: 190° (S)
Pressure: 29.73in Gusts: 0mph
Raw Report DataKLAS 251156Z 19013KT 10SM SCT120 15/02 A2973 RMK AO2 SLP050 T01500022 10183 20150 58001
Traffic Incident Summary
Active as of:
Severity:
Category:
InformationThere was an issue retrieving the traffic information for this location. Please try a different location or try again shortly.
Advertisements
Track Severe Weather on mobile